»·PEaware :: DAL883 KOAK-KSAN

DAL883 :: KOAK-KSAN

FLIGHT INFORMATION

Flight Status: Arrived
Operator:
Delta Air Lines
More flights by this operator :: More flights under this callsign
Pilot: Anonymous 18910 (18910)
Aircraft: BOEING 717-200
(B712)
More flights by this aircraft type
Origin: KOAK Metro Oakland Intl
United States
Destination: KSAN San Diego Intl-Lindbergh
United States
More flights between these airports :: More routes between these airports
Route: COAST9 MCKEY LAX COMIX2
File this flight plan on PilotEdge
Remarks:
Altitude:
(Current/Filed)
33,000ft
Speed:
(Current/Filed)
425kts
Departed: 01-Feb-20 10:01 PM
Arrived: 01-Feb-20 11:16 PM
Distance/Time
Traveled:
387nm/1:15
Distance/Time
To Go:
Arrived

Flight Plot

Page will automatically refresh every two minutes.

Flight plan parsing failed; only flown route is shown


Map Options




Map Legend


Flown Route
Filed Route
Departure Airport
Arrival Airport
Navaid (VOR, NDB)
Fix

Horizontal Profiles

Position Reports

Time Latitude Longitude Heading Altitude Ground
Speed
01-Feb-20 20:51 37.710432 -122.216912 64 14ft 0kts
01-Feb-20 20:52 37.710432 -122.216912 64 14ft 0kts
01-Feb-20 20:53 37.710432 -122.216912 64 14ft 0kts
01-Feb-20 20:54 37.710432 -122.216912 64 14ft 0kts
01-Feb-20 20:55 37.710432 -122.216912 64 14ft 0kts
01-Feb-20 20:56 37.710432 -122.216912 64 14ft 0kts
01-Feb-20 20:57 37.710432 -122.216912 64 14ft 0kts
01-Feb-20 20:57 37.710432 -122.216912 64 14ft 0kts
01-Feb-20 20:59 37.710432 -122.216912 64 14ft 0kts
01-Feb-20 21:00 37.710432 -122.216912 64 14ft 0kts
01-Feb-20 21:00 37.710432 -122.216912 64 14ft 0kts
01-Feb-20 21:01 37.710432 -122.216912 64 14ft 0kts
01-Feb-20 21:03 37.710432 -122.216912 64 14ft 0kts
01-Feb-20 21:03 37.710432 -122.216912 64 14ft 0kts
01-Feb-20 21:04 37.710432 -122.216912 64 14ft 0kts
01-Feb-20 21:05 37.710432 -122.216912 64 14ft 0kts
01-Feb-20 21:06 37.710432 -122.216912 64 14ft 0kts
01-Feb-20 21:07 37.710432 -122.216912 64 14ft 0kts
01-Feb-20 21:08 37.710432 -122.216912 64 14ft 0kts
01-Feb-20 21:09 37.710432 -122.216912 64 14ft 0kts
01-Feb-20 21:10 37.710432 -122.216912 64 14ft 0kts
01-Feb-20 21:11 37.710432 -122.216912 64 14ft 0kts
01-Feb-20 21:12 37.710432 -122.216912 64 14ft 0kts
01-Feb-20 21:13 37.710432 -122.216912 64 14ft 0kts
01-Feb-20 21:14 37.710432 -122.216912 64 14ft 0kts
01-Feb-20 21:15 37.710432 -122.216912 64 14ft 0kts
01-Feb-20 21:16 37.710432 -122.216912 64 14ft 0kts
01-Feb-20 21:17 37.710432 -122.216912 64 14ft 0kts
01-Feb-20 21:18 37.710432 -122.216912 64 14ft 0kts
01-Feb-20 21:19 37.710432 -122.216912 64 14ft 0kts
01-Feb-20 21:20 37.710432 -122.216912 64 14ft 0kts
01-Feb-20 21:21 37.710432 -122.216912 64 14ft 0kts
01-Feb-20 21:22 37.710432 -122.216912 64 14ft 0kts
01-Feb-20 21:23 37.710432 -122.216912 64 14ft 0kts
01-Feb-20 21:24 37.710432 -122.216912 64 14ft 0kts
01-Feb-20 21:25 37.710432 -122.216912 64 14ft 0kts
01-Feb-20 21:26 37.710432 -122.216912 64 14ft 0kts
01-Feb-20 21:27 37.710432 -122.216912 64 14ft 0kts
01-Feb-20 21:28 37.710432 -122.216912 64 14ft 0kts
01-Feb-20 21:29 37.710432 -122.216912 64 14ft 0kts
01-Feb-20 21:30 37.710432 -122.216912 64 14ft 0kts
01-Feb-20 21:31 37.710432 -122.216912 64 14ft 0kts
01-Feb-20 21:32 37.710432 -122.216912 64 14ft 0kts
01-Feb-20 21:33 37.710432 -122.216912 64 14ft 0kts
01-Feb-20 21:34 37.710432 -122.216912 64 14ft 0kts
01-Feb-20 21:35 37.710432 -122.216912 64 14ft 0kts
01-Feb-20 21:36 37.710432 -122.216912 64 14ft 0kts
01-Feb-20 21:37 37.710432 -122.216912 64 14ft 0kts
01-Feb-20 21:38 37.710432 -122.216912 64 14ft 0kts
01-Feb-20 21:39 37.710432 -122.216912 64 14ft 0kts
01-Feb-20 21:40 37.710432 -122.216912 64 14ft 0kts
01-Feb-20 21:41 37.710432 -122.216912 64 14ft 0kts
01-Feb-20 21:42 37.710432 -122.216912 64 14ft 0kts
01-Feb-20 21:43 37.710432 -122.216912 64 14ft 0kts
01-Feb-20 21:44 37.710432 -122.216912 64 14ft 0kts
01-Feb-20 21:45 37.710432 -122.216912 64 14ft 0kts
01-Feb-20 21:46 37.710271 -122.217366 68 14ft 2kts
01-Feb-20 21:47 37.710241 -122.218189 130 14ft 0kts
01-Feb-20 21:48 37.710241 -122.218189 130 14ft 0kts
01-Feb-20 21:49 37.710240 -122.218188 130 14ft 0kts
01-Feb-20 21:50 37.710240 -122.218188 130 14ft 0kts
01-Feb-20 21:51 37.710239 -122.218187 130 14ft 0kts
01-Feb-20 21:52 37.709096 -122.216384 132 14ft 8kts
01-Feb-20 21:53 37.707307 -122.217458 219 14ft 4kts
01-Feb-20 21:54 37.705499 -122.216448 129 14ft 4kts
01-Feb-20 21:55 37.704805 -122.215369 129 14ft 0kts
01-Feb-20 21:56 37.703996 -122.214248 147 14ft 0kts
01-Feb-20 21:57 37.702824 -122.213636 163 14ft 3kts
01-Feb-20 21:58 37.702401 -122.213615 200 14ft 0kts
01-Feb-20 21:59 37.701661 -122.214443 257 14ft 10kts
01-Feb-20 22:00 37.709945 -122.226925 309 15ft 148kts
01-Feb-20 22:01 37.742109 -122.275167 310 1701ft 170kts
01-Feb-20 22:02 37.772490 -122.320831 307 2052ft 168kts
01-Feb-20 22:03 37.804419 -122.373105 306 4047ft 188kts
01-Feb-20 22:04 37.825856 -122.433346 258 5729ft 224kts
01-Feb-20 22:05 37.771064 -122.470185 178 9117ft 227kts
01-Feb-20 22:06 37.695647 -122.476553 188 10634ft 322kts
01-Feb-20 22:07 37.598932 -122.489266 188 12629ft 358kts
01-Feb-20 22:08 37.498152 -122.502494 189 15227ft 371kts
01-Feb-20 22:09 37.393935 -122.516126 189 17605ft 383kts
01-Feb-20 22:10 37.286431 -122.530150 189 19721ft 394kts
01-Feb-20 22:11 37.175192 -122.544617 188 21568ft 407kts
01-Feb-20 22:12 37.061622 -122.559343 188 23236ft 417kts
01-Feb-20 22:13 36.943503 -122.566524 174 24678ft 435kts
01-Feb-20 22:14 36.823034 -122.535685 171 25920ft 448kts
01-Feb-20 22:15 36.699827 -122.503774 171 27034ft 458kts
01-Feb-20 22:16 36.574148 -122.471309 171 28373ft 461kts
01-Feb-20 22:17 36.448911 -122.436365 162 29774ft 466kts
01-Feb-20 22:18 36.351470 -122.329231 130 31279ft 476kts
01-Feb-20 22:19 36.266832 -122.204985 132 32820ft 471kts
01-Feb-20 22:20 36.182269 -122.082156 132 32992ft 466kts
01-Feb-20 22:21 36.097982 -121.960174 132 32994ft 466kts
01-Feb-20 22:22 36.013638 -121.838548 132 32993ft 466kts
01-Feb-20 22:23 35.929326 -121.717402 132 32988ft 465kts
01-Feb-20 22:24 35.844791 -121.596371 132 32986ft 464kts
01-Feb-20 22:25 35.760217 -121.475714 132 32986ft 464kts
01-Feb-20 22:26 35.675834 -121.355756 131 32980ft 464kts
01-Feb-20 22:27 35.591432 -121.236191 131 32969ft 462kts
01-Feb-20 22:28 35.507157 -121.117215 131 32969ft 462kts
01-Feb-20 22:29 35.430897 -120.990831 124 32967ft 462kts
01-Feb-20 22:30 35.357420 -120.860796 124 32964ft 461kts
01-Feb-20 22:31 35.284534 -120.732404 124 32958ft 461kts
01-Feb-20 22:32 35.211231 -120.603749 124 32956ft 459kts
01-Feb-20 22:33 35.137997 -120.475684 124 32956ft 460kts
01-Feb-20 22:34 35.064636 -120.347862 124 32956ft 458kts
01-Feb-20 22:35 34.991292 -120.220532 124 32956ft 458kts
01-Feb-20 22:36 34.917819 -120.093436 124 32957ft 458kts
01-Feb-20 22:37 34.844526 -119.967105 124 32950ft 455kts
01-Feb-20 22:38 34.771231 -119.841218 124 32947ft 454kts
01-Feb-20 22:39 34.698155 -119.716151 124 32931ft 454kts
01-Feb-20 22:40 34.624766 -119.590987 124 32936ft 454kts
01-Feb-20 22:41 34.551403 -119.466307 125 32941ft 454kts
01-Feb-20 22:42 34.477798 -119.341650 125 32944ft 454kts
01-Feb-20 22:43 34.404410 -119.217794 125 32937ft 454kts
01-Feb-20 22:44 34.330507 -119.093498 125 32918ft 453kts
01-Feb-20 22:45 34.256978 -118.970256 125 32910ft 453kts
01-Feb-20 22:46 34.183035 -118.846744 126 32910ft 452kts
01-Feb-20 22:47 34.109445 -118.724241 126 32909ft 451kts
01-Feb-20 22:48 34.035496 -118.601557 126 32906ft 450kts
01-Feb-20 22:49 33.961947 -118.479956 126 30017ft 461kts
01-Feb-20 22:50 33.881813 -118.365599 133 28143ft 433kts
01-Feb-20 22:51 33.801754 -118.262260 133 26363ft 416kts
01-Feb-20 22:52 33.724057 -118.160731 133 24629ft 406kts
01-Feb-20 22:53 33.649184 -118.062506 133 22950ft 395kts
01-Feb-20 22:55 33.576293 -117.967137 132 21323ft 383kts
01-Feb-20 22:56 33.502083 -117.877241 135 19837ft 373kts
01-Feb-20 22:57 33.427970 -117.792553 137 18425ft 365kts
01-Feb-20 22:58 33.353306 -117.712716 137 16937ft 356kts
01-Feb-20 22:59 33.279764 -117.634272 137 15381ft 349kts
01-Feb-20 23:00 33.207613 -117.557948 137 13796ft 342kts
01-Feb-20 23:01 33.136476 -117.484116 140 12238ft 334kts
01-Feb-20 23:02 33.060931 -117.420305 143 10827ft 332kts
01-Feb-20 23:03 32.993722 -117.364003 142 10108ft 272kts
01-Feb-20 23:04 32.931480 -117.311810 142 9845ft 275kts
01-Feb-20 23:05 32.869468 -117.260233 142 8639ft 268kts
01-Feb-20 23:06 32.813296 -117.204978 116 7478ft 258kts
01-Feb-20 23:07 32.792224 -117.125124 103 6708ft 253kts
01-Feb-20 23:08 32.774901 -117.050208 104 5948ft 206kts
01-Feb-20 23:09 32.758510 -116.984232 111 5099ft 213kts
01-Feb-20 23:10 32.709253 -116.958638 195 4193ft 222kts
01-Feb-20 23:11 32.682647 -117.014761 288 3216ft 201kts
01-Feb-20 23:11 32.701314 -117.058279 292 2462ft 156kts
01-Feb-20 23:13 32.715577 -117.115221 285 1186ft 146kts
01-Feb-20 23:14 32.726871 -117.162000 286 367ft 146kts
01-Feb-20 23:14 32.735122 -117.196137 285 23ft 53kts
01-Feb-20 23:16 32.735496 -117.202231 195 23ft 10kts
01-Feb-20 23:16 32.733477 -117.202708 165 23ft 10kts
01-Feb-20 23:17 32.732377 -117.202796 200 23ft 0kts
01-Feb-20 23:19 32.732376 -117.202796 200 23ft 0kts
01-Feb-20 23:19 32.732375 -117.202796 200 23ft 0kts
01-Feb-20 23:21 32.732374 -117.202797 200 23ft 0kts

Navigation Log

Ident Type
Flight plan parsing failed, navigation log unavailable